createdAt,value
2022-10-20T00:02:19.979Z,100.00
2022-10-20T00:04:49.868Z,100.00
2022-10-20T00:07:17.973Z,100.00
2022-10-20T00:09:46.033Z,100.00
2022-10-20T00:12:14.119Z,100.00
2022-10-20T00:14:42.302Z,100.00
2022-10-20T00:17:10.436Z,100.00
2022-10-20T00:19:38.833Z,100.00
2022-10-20T00:22:08.373Z,100.00
2022-10-20T00:24:36.514Z,100.00
2022-10-20T00:27:04.783Z,100.00
2022-10-20T00:29:33.351Z,100.00
2022-10-20T00:32:01.471Z,100.00
2022-10-20T00:34:29.553Z,100.00
2022-10-20T00:36:57.652Z,100.00
2022-10-20T00:39:27.271Z,100.00
2022-10-20T00:41:55.399Z,100.00
2022-10-20T00:44:49.916Z,100.00
2022-10-20T00:47:19.747Z,100.00
2022-10-20T00:49:47.986Z,100.00
2022-10-20T00:52:18.356Z,100.00
2022-10-20T00:54:47.860Z,100.00
2022-10-20T00:57:16.780Z,100.00
2022-10-20T00:59:44.891Z,100.00
2022-10-20T01:02:12.969Z,100.00
2022-10-20T01:04:41.097Z,100.00
2022-10-20T01:07:09.280Z,100.00
2022-10-20T01:09:39.119Z,100.00
2022-10-20T01:12:14.911Z,100.00
2022-10-20T01:14:47.242Z,100.00
2022-10-20T01:17:20.589Z,100.00
2022-10-20T01:20:09.016Z,100.00
2022-10-20T01:22:44.254Z,100.00
2022-10-20T01:25:18.950Z,100.00
2022-10-20T01:27:48.770Z,100.00
2022-10-20T01:30:17.774Z,100.00
2022-10-20T01:32:52.993Z,100.00
2022-10-20T01:35:24.723Z,100.00
2022-10-20T01:37:54.580Z,100.00
2022-10-20T01:40:27.786Z,100.00
2022-10-20T01:42:58.705Z,100.00
2022-10-20T01:45:27.620Z,100.00
2022-10-20T01:47:55.744Z,100.00
2022-10-20T01:50:23.822Z,100.00
2022-10-20T01:52:55.964Z,100.00
2022-10-20T01:55:24.214Z,100.00
2022-10-20T01:58:06.130Z,100.00
2022-10-20T02:00:34.186Z,100.00
2022-10-20T02:03:11.165Z,100.00
2022-10-20T02:05:46.047Z,100.00
2022-10-20T02:08:15.775Z,100.00
2022-10-20T02:10:46.826Z,100.00
2022-10-20T02:13:16.543Z,100.00
2022-10-20T02:15:46.356Z,100.00
2022-10-20T02:18:16.159Z,100.00
2022-10-20T02:20:45.166Z,100.00
2022-10-20T02:23:13.287Z,100.00
2022-10-20T02:25:41.357Z,100.00
2022-10-20T02:28:10.867Z,100.00
2022-10-20T02:30:40.508Z,100.00
2022-10-20T02:33:08.541Z,100.00
2022-10-20T02:35:36.660Z,100.00
2022-10-20T02:38:04.713Z,100.00
2022-10-20T02:40:32.884Z,100.00
2022-10-20T02:43:00.948Z,100.00
2022-10-20T02:45:29.074Z,100.00
2022-10-20T02:47:59.089Z,100.00
2022-10-20T02:50:27.537Z,100.00
2022-10-20T02:52:55.625Z,100.00
2022-10-20T02:55:23.742Z,100.00
2022-10-20T02:57:53.968Z,100.00
2022-10-20T03:00:22.536Z,100.00
2022-10-20T03:02:51.488Z,100.00
2022-10-20T03:05:20.982Z,100.00
2022-10-20T03:07:49.028Z,100.00
2022-10-20T03:10:17.204Z,100.00
2022-10-20T03:12:45.350Z,100.00
2022-10-20T03:15:13.829Z,100.00
2022-10-20T03:17:41.948Z,100.00
2022-10-20T03:20:11.083Z,100.00
2022-10-20T03:22:40.573Z,100.00
2022-10-20T03:25:09.045Z,100.00
2022-10-20T03:27:37.806Z,100.00
2022-10-20T03:30:07.213Z,100.00
2022-10-20T03:32:35.577Z,100.00
2022-10-20T03:35:03.906Z,100.00
2022-10-20T03:37:32.049Z,100.00
2022-10-20T03:40:01.586Z,100.00
2022-10-20T03:42:29.988Z,100.00
2022-10-20T03:44:58.087Z,100.00
2022-10-20T03:47:26.239Z,100.00
2022-10-20T03:49:54.394Z,100.00
2022-10-20T03:52:22.571Z,100.00
2022-10-20T03:54:51.051Z,100.00
2022-10-20T03:57:20.617Z,100.00
2022-10-20T03:59:48.748Z,100.00
2022-10-20T04:02:30.702Z,100.00
2022-10-20T04:04:58.858Z,100.00
2022-10-20T04:07:26.962Z,100.00
2022-10-20T04:09:56.153Z,100.00
2022-10-20T04:12:25.850Z,100.00
2022-10-20T04:14:53.966Z,100.00
2022-10-20T04:17:22.047Z,100.00
2022-10-20T04:19:50.115Z,100.00
2022-10-20T04:22:18.283Z,100.00
2022-10-20T04:24:46.644Z,100.00
2022-10-20T04:27:14.719Z,100.00
2022-10-20T04:29:44.240Z,100.00
2022-10-20T04:32:12.459Z,100.00
2022-10-20T04:34:40.581Z,100.00
2022-10-20T04:37:09.016Z,100.00
2022-10-20T04:39:37.158Z,100.00
2022-10-20T04:42:09.016Z,100.00
2022-10-20T04:44:37.185Z,100.00
2022-10-20T04:47:06.691Z,100.00
2022-10-20T04:49:34.770Z,100.00
2022-10-20T04:52:05.891Z,100.00
2022-10-20T04:54:33.991Z,100.00
2022-10-20T04:57:02.007Z,100.00
2022-10-20T04:59:30.138Z,100.00
2022-10-20T05:01:58.336Z,100.00
2022-10-20T05:04:28.365Z,100.00
2022-10-20T05:06:56.500Z,100.00
2022-10-20T05:09:24.558Z,100.00
2022-10-20T05:11:53.484Z,100.00
2022-10-20T05:14:21.693Z,100.00
2022-10-20T05:16:49.775Z,100.00
2022-10-20T05:19:18.100Z,100.00
2022-10-20T05:21:47.605Z,100.00
2022-10-20T05:24:20.113Z,100.00
2022-10-20T05:26:50.173Z,100.00
2022-10-20T05:29:18.252Z,100.00
2022-10-20T05:31:46.351Z,100.00
2022-10-20T05:34:14.474Z,100.00
2022-10-20T05:36:42.652Z,100.00
2022-10-20T05:39:12.334Z,100.00
2022-10-20T05:41:40.457Z,100.00
2022-10-20T05:44:09.739Z,100.00
2022-10-20T05:46:41.391Z,100.00
2022-10-20T05:49:14.044Z,100.00
2022-10-20T05:51:42.228Z,100.00
2022-10-20T05:54:12.724Z,100.00
2022-10-20T05:56:40.878Z,100.00
2022-10-20T05:59:11.878Z,100.00
2022-10-20T06:01:48.151Z,100.00
2022-10-20T06:04:17.296Z,100.00
2022-10-20T06:06:45.404Z,100.00
2022-10-20T06:09:14.886Z,100.00
2022-10-20T06:11:45.385Z,100.00
2022-10-20T06:14:13.726Z,100.00
2022-10-20T06:16:41.843Z,100.00
2022-10-20T06:19:09.969Z,100.00
2022-10-20T06:21:38.719Z,100.00
2022-10-20T06:24:07.266Z,100.00
2022-10-20T06:26:37.524Z,100.00
2022-10-20T06:29:06.108Z,100.00
2022-10-20T06:31:34.769Z,100.00
2022-10-20T06:34:03.057Z,100.00
2022-10-20T06:36:31.143Z,100.00
2022-10-20T06:39:00.046Z,100.00
2022-10-20T06:41:28.537Z,100.00
2022-10-20T06:43:59.918Z,100.00
2022-10-20T06:46:28.751Z,100.00
2022-10-20T06:48:58.739Z,100.00
2022-10-20T06:51:27.258Z,100.00
2022-10-20T06:53:55.631Z,100.00
2022-10-20T06:56:24.313Z,100.00
2022-10-20T06:58:53.222Z,100.00
2022-10-20T07:01:23.780Z,100.00
2022-10-20T07:03:53.243Z,100.00
2022-10-20T07:06:22.984Z,100.00
2022-10-20T07:08:51.272Z,100.00
2022-10-20T07:11:20.651Z,100.00
2022-10-20T07:13:49.453Z,100.00
2022-10-20T07:16:18.481Z,100.00
2022-10-20T07:18:48.005Z,100.00
2022-10-20T07:21:21.197Z,100.00
2022-10-20T07:23:49.525Z,100.00
2022-10-20T07:26:19.031Z,100.00
2022-10-20T07:28:50.826Z,100.00
2022-10-20T07:31:22.097Z,100.00
2022-10-20T07:34:13.273Z,100.00
2022-10-20T07:36:40.288Z,100.00
2022-10-20T07:39:08.453Z,100.00
2022-10-20T07:41:37.497Z,100.00
2022-10-20T07:44:05.893Z,100.00
2022-10-20T07:46:34.367Z,100.00
2022-10-20T07:49:39.301Z,100.00
2022-10-20T07:51:52.771Z,100.00
2022-10-20T07:54:21.032Z,100.00
2022-10-20T07:56:49.573Z,100.00
2022-10-20T07:59:17.697Z,100.00
2022-10-20T08:01:46.195Z,100.00
2022-10-20T08:04:15.779Z,100.00
2022-10-20T08:06:46.611Z,100.00
2022-10-20T08:09:15.128Z,100.00
2022-10-20T08:11:45.535Z,100.00
2022-10-20T08:14:13.726Z,100.00
2022-10-20T08:16:42.243Z,100.00
2022-10-20T08:19:24.825Z,100.00
2022-10-20T08:21:54.444Z,100.00
2022-10-20T08:24:22.570Z,100.00
2022-10-20T08:26:50.686Z,100.00
2022-10-20T08:29:19.025Z,100.00
2022-10-20T08:31:47.145Z,100.00
2022-10-20T08:34:15.336Z,100.00
2022-10-20T08:36:43.496Z,100.00
2022-10-20T08:39:13.127Z,100.00
2022-10-20T08:42:06.354Z,100.00
2022-10-20T08:44:33.691Z,100.00
2022-10-20T08:47:02.453Z,100.00
2022-10-20T08:49:31.394Z,100.00
2022-10-20T08:51:59.965Z,100.00
2022-10-20T08:54:29.849Z,100.00
2022-10-20T08:56:57.969Z,100.00
2022-10-20T08:59:30.410Z,96.43
2022-10-20T09:01:58.722Z,99.23
2022-10-20T09:04:28.523Z,91.98
2022-10-20T09:06:59.440Z,89.13
2022-10-20T09:09:30.337Z,84.18
2022-10-20T09:12:03.638Z,88.72
2022-10-20T09:14:32.321Z,93.22
2022-10-20T09:17:01.084Z,91.00
2022-10-20T09:19:29.469Z,89.89
2022-10-20T09:21:59.795Z,83.03
2022-10-20T09:24:30.338Z,78.90
2022-10-20T09:26:59.864Z,79.65
2022-10-20T09:29:36.226Z,82.55
2022-10-20T09:32:27.315Z,78.57
2022-10-20T09:34:52.452Z,78.25
2022-10-20T09:37:21.032Z,76.60
2022-10-20T09:39:55.604Z,76.03
2022-10-20T09:42:25.080Z,76.62
2022-10-20T09:44:54.524Z,78.29
2022-10-20T09:47:22.791Z,66.43
2022-10-20T09:49:58.457Z,63.58
2022-10-20T09:52:34.397Z,58.89
2022-10-20T09:55:06.113Z,56.10
2022-10-20T09:57:34.290Z,52.67
2022-10-20T10:00:13.488Z,59.20
2022-10-20T10:02:50.960Z,52.56
2022-10-20T10:05:20.581Z,49.99
2022-10-20T10:07:59.111Z,47.41
2022-10-20T10:10:29.647Z,53.55
2022-10-20T10:13:00.892Z,49.67
2022-10-20T10:15:31.161Z,58.81
2022-10-20T10:17:59.619Z,45.45
2022-10-20T10:20:34.457Z,52.54
2022-10-20T10:23:20.160Z,45.74
2022-10-20T10:25:49.763Z,48.58
2022-10-20T10:28:29.772Z,47.91
2022-10-20T10:31:21.818Z,49.66
2022-10-20T10:33:51.431Z,50.01
2022-10-20T10:36:31.166Z,47.08
2022-10-20T10:38:59.745Z,43.00
2022-10-20T10:41:52.090Z,42.42
2022-10-20T10:44:25.466Z,42.34
2022-10-20T10:46:57.442Z,45.33
2022-10-20T10:49:46.938Z,45.50
2022-10-20T10:52:22.316Z,46.39
2022-10-20T10:54:58.162Z,42.98
2022-10-20T10:57:32.582Z,40.77
2022-10-20T11:00:02.297Z,40.92
2022-10-20T11:02:38.525Z,41.71
2022-10-20T11:05:51.147Z,42.30
2022-10-20T11:08:24.773Z,39.10
2022-10-20T11:10:56.219Z,41.65
2022-10-20T11:13:30.751Z,44.19
2022-10-20T11:16:08.067Z,42.24
2022-10-20T11:18:49.928Z,42.45
2022-10-20T11:21:25.426Z,42.86
2022-10-20T11:24:07.554Z,40.43
2022-10-20T11:26:36.390Z,39.97
2022-10-20T11:29:07.148Z,39.02
2022-10-20T11:31:36.463Z,40.24
2022-10-20T11:34:06.575Z,37.49
2022-10-20T11:36:37.191Z,39.46
2022-10-20T11:39:06.821Z,42.23
2022-10-20T11:41:37.452Z,41.03
2022-10-20T11:44:08.335Z,38.54
2022-10-20T11:46:39.342Z,37.64
2022-10-20T11:49:07.717Z,36.82
2022-10-20T11:52:01.688Z,37.25
2022-10-20T11:54:51.170Z,40.11
2022-10-20T11:57:23.630Z,40.61
2022-10-20T12:00:16.614Z,39.85
2022-10-20T12:03:19.038Z,40.71
2022-10-20T12:05:53.877Z,39.62
2022-10-20T12:08:37.828Z,39.53
2022-10-20T12:11:08.618Z,39.47
2022-10-20T12:13:40.789Z,39.38
2022-10-20T12:16:10.319Z,40.61
2022-10-20T12:18:38.739Z,40.50
2022-10-20T12:21:08.112Z,39.98
2022-10-20T12:24:05.669Z,39.45
2022-10-20T12:26:44.588Z,41.72
2022-10-20T12:29:47.521Z,40.57
2022-10-20T12:32:36.215Z,43.00
2022-10-20T12:35:05.379Z,41.51
2022-10-20T12:37:34.964Z,41.69
2022-10-20T12:40:20.079Z,43.56
2022-10-20T12:42:49.616Z,43.69
2022-10-20T12:45:27.518Z,44.21
2022-10-20T12:47:59.111Z,43.84
2022-10-20T12:50:34.380Z,41.55
2022-10-20T12:53:11.939Z,40.35
2022-10-20T12:55:41.970Z,40.77
2022-10-20T12:58:25.820Z,40.70
2022-10-20T13:01:09.022Z,39.98
2022-10-20T13:03:47.199Z,40.62
2022-10-20T13:06:40.398Z,42.03
2022-10-20T13:09:22.309Z,40.87
2022-10-20T13:12:01.238Z,41.16
2022-10-20T13:14:36.310Z,40.78
2022-10-20T13:17:12.035Z,41.23
2022-10-20T13:19:45.145Z,42.17
2022-10-20T13:22:39.057Z,43.66
2022-10-20T13:25:13.086Z,41.14
2022-10-20T13:27:42.627Z,42.74
2022-10-20T13:30:11.500Z,43.53
2022-10-20T13:32:53.897Z,43.55
2022-10-20T13:35:35.013Z,42.42
2022-10-20T13:38:07.043Z,42.85
2022-10-20T13:40:55.319Z,42.33
2022-10-20T13:43:32.241Z,43.48
2022-10-20T13:50:34.619Z,43.14
2022-10-20T13:53:30.732Z,45.50
2022-10-20T13:56:01.353Z,46.41
2022-10-20T13:58:29.581Z,43.01
2022-10-20T14:00:59.506Z,43.41
2022-10-20T14:03:27.614Z,42.82
2022-10-20T14:05:55.705Z,44.61
2022-10-20T14:08:23.884Z,44.93
2022-10-20T14:10:55.282Z,44.72
2022-10-20T14:13:24.277Z,45.71
2022-10-20T14:15:54.035Z,46.62
2022-10-20T14:18:24.821Z,46.82
2022-10-20T14:20:57.241Z,46.85
2022-10-20T14:23:25.679Z,47.92
2022-10-20T14:25:55.417Z,47.52
2022-10-20T14:28:23.494Z,45.76
2022-10-20T14:30:51.898Z,46.94
2022-10-20T14:33:20.003Z,48.37
2022-10-20T14:35:50.552Z,49.07
2022-10-20T14:38:19.501Z,48.51
2022-10-20T14:40:51.164Z,49.35
2022-10-20T14:43:21.660Z,49.65
2022-10-20T14:45:56.543Z,51.84
2022-10-20T14:48:25.468Z,51.86
2022-10-20T14:50:54.013Z,51.95
2022-10-20T14:53:32.809Z,53.01
2022-10-20T14:56:02.582Z,53.38
2022-10-20T14:58:34.742Z,55.33
2022-10-20T15:01:17.188Z,55.01
2022-10-20T15:03:45.797Z,57.66
2022-10-20T15:06:17.890Z,59.64
2022-10-20T15:08:53.741Z,57.22
2022-10-20T15:11:22.966Z,56.01
2022-10-20T15:13:53.866Z,55.48
2022-10-20T15:16:42.538Z,56.07
2022-10-20T15:19:32.124Z,58.19
2022-10-20T15:22:02.381Z,59.70
2022-10-20T15:24:30.459Z,61.91
2022-10-20T15:26:58.728Z,61.79
2022-10-20T15:29:28.501Z,63.71
2022-10-20T15:31:56.998Z,64.50
2022-10-20T15:34:25.636Z,66.99
2022-10-20T15:36:53.804Z,68.02
2022-10-20T15:39:21.932Z,67.54
2022-10-20T15:41:53.036Z,67.90
2022-10-20T15:44:23.186Z,67.94
2022-10-20T15:46:53.531Z,68.27
2022-10-20T15:49:21.745Z,69.37
2022-10-20T15:51:50.493Z,71.75
2022-10-20T15:54:19.452Z,72.12
2022-10-20T15:56:47.563Z,73.59
2022-10-20T15:59:16.046Z,74.12
2022-10-20T16:01:44.279Z,74.50
2022-10-20T16:04:23.155Z,74.09
2022-10-20T16:06:57.647Z,75.50
2022-10-20T16:09:27.566Z,74.93
2022-10-20T16:11:56.127Z,76.36
2022-10-20T16:14:24.230Z,75.95
2022-10-20T16:16:52.312Z,77.07
2022-10-20T16:19:21.874Z,76.50
2022-10-20T16:21:49.971Z,77.26
2022-10-20T16:24:18.353Z,76.52
2022-10-20T16:26:46.821Z,76.06
2022-10-20T16:29:14.893Z,78.31
2022-10-20T16:31:43.074Z,78.47
2022-10-20T16:34:11.250Z,78.74
2022-10-20T16:36:40.853Z,78.80
2022-10-20T16:39:11.043Z,79.80
2022-10-20T16:41:39.480Z,79.21
2022-10-20T16:44:07.607Z,79.64
2022-10-20T16:46:35.769Z,79.04
2022-10-20T16:49:04.072Z,79.75
2022-10-20T16:51:32.186Z,79.97
2022-10-20T16:54:03.446Z,81.47
2022-10-20T16:56:31.817Z,81.90
2022-10-20T16:58:59.964Z,83.55
2022-10-20T17:01:31.820Z,84.64
2022-10-20T17:03:59.928Z,85.49
2022-10-20T17:06:28.236Z,86.24
2022-10-20T17:08:56.851Z,85.21
2022-10-20T17:11:27.562Z,84.50
2022-10-20T17:13:55.757Z,85.20
2022-10-20T17:16:27.640Z,86.23
2022-10-20T17:18:56.883Z,85.95
2022-10-20T17:21:25.516Z,84.86
2022-10-20T17:23:53.677Z,84.65
2022-10-20T17:26:22.708Z,85.58
2022-10-20T17:28:54.324Z,86.63
2022-10-20T17:31:22.723Z,84.71
2022-10-20T17:33:51.658Z,84.73
2022-10-20T17:36:25.909Z,84.70
2022-10-20T17:38:55.214Z,84.76
2022-10-20T17:41:23.350Z,84.36
2022-10-20T17:43:52.900Z,85.10
2022-10-20T17:46:24.145Z,85.09
2022-10-20T17:48:52.681Z,84.37
2022-10-20T17:51:22.171Z,82.97
2022-10-20T17:53:51.958Z,84.33
2022-10-20T17:56:20.855Z,83.01
2022-10-20T17:58:49.981Z,83.58
2022-10-20T18:01:20.734Z,82.75
2022-10-20T18:03:49.663Z,83.56
2022-10-20T18:06:19.194Z,83.17
2022-10-20T18:08:47.759Z,83.29
2022-10-20T18:11:17.148Z,83.59
2022-10-20T18:13:45.402Z,83.79
2022-10-20T18:16:14.710Z,84.58
2022-10-20T18:18:44.401Z,84.52
2022-10-20T18:21:13.662Z,84.57
2022-10-20T18:23:43.983Z,84.44
2022-10-20T18:26:14.001Z,83.76
2022-10-20T18:28:45.739Z,84.00
2022-10-20T18:31:18.465Z,84.59
2022-10-20T18:33:48.017Z,84.07
2022-10-20T18:36:17.752Z,83.42
2022-10-20T18:38:46.412Z,82.54
2022-10-20T18:41:15.471Z,82.64
2022-10-20T18:43:45.480Z,81.77
2022-10-20T18:46:13.978Z,82.35
2022-10-20T18:48:42.621Z,82.27
2022-10-20T18:51:13.792Z,81.16
2022-10-20T18:53:42.429Z,81.42
2022-10-20T18:56:13.638Z,81.71
2022-10-20T18:58:42.303Z,79.75
2022-10-20T19:01:16.271Z,79.26
2022-10-20T19:03:46.349Z,80.38
2022-10-20T19:06:16.772Z,81.31
2022-10-20T19:08:45.730Z,80.62
2022-10-20T19:11:14.520Z,79.66
2022-10-20T19:13:42.731Z,79.36
2022-10-20T19:16:13.449Z,79.50
2022-10-20T19:18:41.705Z,79.93
2022-10-20T19:21:09.855Z,82.48
2022-10-20T19:23:40.819Z,82.90
2022-10-20T19:26:10.161Z,83.33
2022-10-20T19:28:39.189Z,84.36
2022-10-20T19:31:20.590Z,84.94
2022-10-20T19:33:50.381Z,83.53
2022-10-20T19:36:18.592Z,84.58
2022-10-20T19:38:48.279Z,84.92
2022-10-20T19:41:16.618Z,83.25
2022-10-20T19:43:44.703Z,83.16
2022-10-20T19:46:14.016Z,82.44
2022-10-20T19:48:42.520Z,81.61
2022-10-20T19:51:10.637Z,81.56
2022-10-20T19:53:38.788Z,82.03
2022-10-20T19:56:09.109Z,82.98
2022-10-20T19:58:39.356Z,83.21
2022-10-20T20:01:09.929Z,83.20
2022-10-20T20:03:38.398Z,83.00
2022-10-20T20:06:07.758Z,83.50
2022-10-20T20:08:35.991Z,82.76
2022-10-20T20:11:04.621Z,82.75
2022-10-20T20:13:34.173Z,82.70
2022-10-20T20:16:07.190Z,82.62
2022-10-20T20:18:35.781Z,82.94
2022-10-20T20:21:04.746Z,82.83
2022-10-20T20:23:47.552Z,82.39
2022-10-20T20:26:22.455Z,82.68
2022-10-20T20:28:52.960Z,84.38
2022-10-20T20:31:21.151Z,84.32
2022-10-20T20:33:49.362Z,85.13
2022-10-20T20:36:17.653Z,84.80
2022-10-20T20:38:45.751Z,84.69
2022-10-20T20:41:14.729Z,84.56
2022-10-20T20:43:45.273Z,85.11
2022-10-20T20:46:16.156Z,85.48
2022-10-20T20:48:44.331Z,85.69
2022-10-20T20:51:12.551Z,85.91
2022-10-20T20:53:40.725Z,85.88
2022-10-20T20:56:09.871Z,85.22
2022-10-20T20:58:38.520Z,85.92
2022-10-20T21:01:07.912Z,85.44
2022-10-20T21:03:37.540Z,86.97
2022-10-20T21:06:06.323Z,87.79
2022-10-20T21:08:34.685Z,86.93
2022-10-20T21:11:07.612Z,87.50
2022-10-20T21:13:36.090Z,87.59
2022-10-20T21:16:11.509Z,88.18
2022-10-20T21:18:41.080Z,89.08
2022-10-20T21:21:13.287Z,89.81
2022-10-20T21:23:41.947Z,89.36
2022-10-20T21:26:10.878Z,90.91
2022-10-20T21:28:39.073Z,90.13
2022-10-20T21:31:07.681Z,89.75
2022-10-20T21:33:36.226Z,90.40
2022-10-20T21:36:07.146Z,90.54
2022-10-20T21:38:35.790Z,90.43
2022-10-20T21:41:04.550Z,90.73
2022-10-20T21:43:32.840Z,90.83
2022-10-20T21:46:13.396Z,90.80
2022-10-20T21:48:41.557Z,89.65
2022-10-20T21:51:16.148Z,89.57
2022-10-20T21:53:44.293Z,89.66
2022-10-20T21:56:12.380Z,87.90
2022-10-20T21:58:40.577Z,88.11
2022-10-20T22:01:12.868Z,87.34
2022-10-20T22:03:41.180Z,88.23
2022-10-20T22:06:11.447Z,86.92
2022-10-20T22:08:40.170Z,87.74
2022-10-20T22:11:10.073Z,88.21
2022-10-20T22:13:38.237Z,89.65
2022-10-20T22:16:06.444Z,90.24
2022-10-20T22:18:34.835Z,91.93
2022-10-20T22:21:04.096Z,93.00
2022-10-20T22:23:33.537Z,91.65
2022-10-20T22:26:01.668Z,92.33
2022-10-20T22:28:29.812Z,94.03
2022-10-20T22:30:57.914Z,94.46
2022-10-20T22:33:26.132Z,91.96
2022-10-20T22:35:54.258Z,92.07
2022-10-20T22:38:22.334Z,89.89
2022-10-20T22:40:51.848Z,90.55
2022-10-20T22:43:19.925Z,91.27
2022-10-20T22:45:47.998Z,90.50
2022-10-20T22:48:16.389Z,88.61
2022-10-20T22:50:44.476Z,88.16
2022-10-20T22:53:12.491Z,89.14
2022-10-20T22:55:40.645Z,88.75
2022-10-20T22:58:10.124Z,88.24
2022-10-20T23:00:39.605Z,88.54
2022-10-20T23:03:07.691Z,88.31
2022-10-20T23:05:35.729Z,89.31
2022-10-20T23:08:03.752Z,89.57
2022-10-20T23:10:31.806Z,90.53
2022-10-20T23:12:59.863Z,91.90
2022-10-20T23:15:29.583Z,93.18
2022-10-20T23:17:57.692Z,91.55
2022-10-20T23:20:25.786Z,93.16
2022-10-20T23:22:53.977Z,93.21
2022-10-20T23:25:22.134Z,92.97
2022-10-20T23:27:50.484Z,92.59
2022-10-20T23:30:18.707Z,93.17
2022-10-20T23:32:48.185Z,93.18
2022-10-20T23:35:16.278Z,92.52
2022-10-20T23:37:45.541Z,92.60
2022-10-20T23:40:13.925Z,92.33
2022-10-20T23:42:42.318Z,92.62
2022-10-20T23:45:11.490Z,92.24
2022-10-20T23:47:39.860Z,92.43
2022-10-20T23:50:10.326Z,91.99
2022-10-20T23:55:14.653Z,93.08
2022-10-20T23:57:44.031Z,92.51
